createdAt,value
2022-12-17T00:00:42.399Z,100.00
2022-12-17T00:03:29.936Z,100.00
2022-12-17T00:06:17.251Z,100.00
2022-12-17T00:09:03.003Z,100.00
2022-12-17T00:11:49.113Z,100.00
2022-12-17T00:14:35.185Z,100.00
2022-12-17T00:17:21.158Z,100.00
2022-12-17T00:20:07.044Z,100.00
2022-12-17T00:22:54.292Z,100.00
2022-12-17T00:25:40.333Z,100.00
2022-12-17T00:28:29.781Z,100.00
2022-12-17T00:31:16.303Z,100.00
2022-12-17T00:34:02.474Z,100.00
2022-12-17T00:36:48.287Z,100.00
2022-12-17T00:39:35.858Z,100.00
2022-12-17T00:42:22.363Z,100.00
2022-12-17T00:45:08.406Z,100.00
2022-12-17T00:47:54.481Z,100.00
2022-12-17T00:50:48.867Z,100.00
2022-12-17T00:53:35.372Z,100.00
2022-12-17T00:56:23.252Z,100.00
2022-12-17T00:59:09.061Z,100.00
2022-12-17T01:01:55.881Z,100.00
2022-12-17T01:04:39.132Z,100.00
2022-12-17T01:07:25.433Z,100.00
2022-12-17T01:10:11.513Z,100.00
2022-12-17T01:12:58.623Z,100.00
2022-12-17T01:15:44.363Z,100.00
2022-12-17T01:18:37.761Z,100.00
2022-12-17T01:21:24.224Z,100.00
2022-12-17T01:24:10.316Z,100.00
2022-12-17T01:26:56.338Z,100.00
2022-12-17T01:29:43.576Z,100.00
2022-12-17T01:32:31.166Z,100.00
2022-12-17T01:35:17.181Z,100.00
2022-12-17T01:38:04.093Z,100.00
2022-12-17T01:40:50.110Z,100.00
2022-12-17T01:43:51.745Z,100.00
2022-12-17T01:46:41.427Z,100.00
2022-12-17T01:49:29.410Z,100.00
2022-12-17T01:52:18.528Z,100.00
2022-12-17T01:55:05.547Z,100.00
2022-12-17T01:57:52.442Z,100.00
2022-12-17T02:00:39.132Z,100.00
2022-12-17T02:03:34.310Z,100.00
2022-12-17T02:06:30.449Z,100.00
2022-12-17T02:09:26.573Z,100.00
2022-12-17T02:12:26.123Z,100.00
2022-12-17T02:15:22.447Z,100.00
2022-12-17T02:18:17.763Z,100.00
2022-12-17T02:21:09.947Z,100.00
2022-12-17T02:24:14.519Z,100.00
2022-12-17T02:27:08.196Z,100.00
2022-12-17T02:30:01.288Z,100.00
2022-12-17T02:32:52.152Z,100.00
2022-12-17T02:35:47.834Z,100.00
2022-12-17T02:38:42.920Z,100.00
2022-12-17T02:41:35.520Z,100.00
2022-12-17T02:44:39.446Z,100.00
2022-12-17T02:47:30.441Z,100.00
2022-12-17T02:50:16.388Z,100.00
2022-12-17T02:53:07.205Z,100.00
2022-12-17T02:55:54.620Z,100.00
2022-12-17T02:58:41.178Z,100.00
2022-12-17T03:01:28.743Z,100.00
2022-12-17T03:04:15.234Z,100.00
2022-12-17T03:07:02.329Z,100.00
2022-12-17T03:09:57.189Z,100.00
2022-12-17T03:12:43.563Z,100.00
2022-12-17T03:15:29.580Z,100.00
2022-12-17T03:18:16.823Z,100.00
2022-12-17T03:21:02.854Z,100.00
2022-12-17T03:23:49.024Z,100.00
2022-12-17T03:26:35.202Z,100.00
2022-12-17T03:29:21.325Z,100.00
2022-12-17T03:32:07.097Z,100.00
2022-12-17T03:34:54.159Z,100.00
2022-12-17T03:37:40.062Z,100.00
2022-12-17T03:40:27.269Z,100.00
2022-12-17T03:43:13.280Z,100.00
2022-12-17T03:45:59.286Z,100.00
2022-12-17T03:48:45.273Z,100.00
2022-12-17T03:51:32.684Z,100.00
2022-12-17T03:54:18.606Z,100.00
2022-12-17T03:57:04.650Z,100.00
2022-12-17T03:59:51.131Z,100.00
2022-12-17T04:02:36.343Z,100.00
2022-12-17T04:05:23.180Z,100.00
2022-12-17T04:08:10.836Z,100.00
2022-12-17T04:10:56.577Z,100.00
2022-12-17T04:13:43.056Z,100.00
2022-12-17T04:16:29.779Z,100.00
2022-12-17T04:19:15.494Z,100.00
2022-12-17T04:22:01.470Z,100.00
2022-12-17T04:24:48.765Z,100.00
2022-12-17T04:27:34.435Z,100.00
2022-12-17T04:30:20.498Z,100.00
2022-12-17T04:33:07.026Z,100.00
2022-12-17T04:35:53.291Z,100.00
2022-12-17T04:38:39.356Z,100.00
2022-12-17T04:41:26.658Z,100.00
2022-12-17T04:44:12.769Z,100.00
2022-12-17T04:46:58.691Z,100.00
2022-12-17T04:49:44.914Z,100.00
2022-12-17T04:52:30.311Z,100.00
2022-12-17T04:55:15.921Z,100.00
2022-12-17T04:58:03.167Z,100.00
2022-12-17T05:00:49.761Z,100.00
2022-12-17T05:03:36.312Z,100.00
2022-12-17T05:06:22.790Z,100.00
2022-12-17T05:09:05.288Z,100.00
2022-12-17T05:11:51.478Z,100.00
2022-12-17T05:14:38.534Z,100.00
2022-12-17T05:17:25.532Z,100.00
2022-12-17T05:20:11.569Z,100.00
2022-12-17T05:22:57.527Z,100.00
2022-12-17T05:25:43.583Z,100.00
2022-12-17T05:28:29.369Z,100.00
2022-12-17T05:31:16.793Z,100.00
2022-12-17T05:34:03.145Z,100.00
2022-12-17T05:36:48.828Z,100.00
2022-12-17T05:39:35.379Z,100.00
2022-12-17T05:42:21.248Z,100.00
2022-12-17T05:45:07.068Z,100.00
2022-12-17T05:47:54.425Z,100.00
2022-12-17T05:50:40.343Z,100.00
2022-12-17T05:53:27.703Z,100.00
2022-12-17T05:56:13.450Z,100.00
2022-12-17T05:58:59.120Z,100.00
2022-12-17T06:01:45.230Z,100.00
2022-12-17T06:04:32.232Z,100.00
2022-12-17T06:07:29.608Z,100.00
2022-12-17T06:10:15.235Z,100.00
2022-12-17T06:13:01.411Z,100.00
2022-12-17T06:15:48.200Z,100.00
2022-12-17T06:18:40.094Z,100.00
2022-12-17T06:21:27.438Z,100.00
2022-12-17T06:24:13.931Z,100.00
2022-12-17T06:27:00.077Z,100.00
2022-12-17T06:29:46.236Z,100.00
2022-12-17T06:32:32.301Z,100.00
2022-12-17T06:35:18.275Z,100.00
2022-12-17T06:38:05.607Z,100.00
2022-12-17T06:40:52.005Z,100.00
2022-12-17T06:43:39.162Z,100.00
2022-12-17T06:46:25.298Z,100.00
2022-12-17T06:49:11.194Z,100.00
2022-12-17T06:51:57.223Z,100.00
2022-12-17T06:54:46.959Z,100.00
2022-12-17T06:57:36.525Z,100.00
2022-12-17T07:00:27.742Z,100.00
2022-12-17T07:03:15.014Z,100.00
2022-12-17T07:06:01.521Z,100.00
2022-12-17T07:08:47.979Z,100.00
2022-12-17T07:11:35.175Z,100.00
2022-12-17T07:14:21.274Z,100.00
2022-12-17T07:17:07.209Z,100.00
2022-12-17T07:19:53.158Z,100.00
2022-12-17T07:22:39.158Z,100.00
2022-12-17T07:25:26.238Z,100.00
2022-12-17T07:28:14.675Z,100.00
2022-12-17T07:31:01.230Z,100.00
2022-12-17T07:33:47.626Z,100.00
2022-12-17T07:36:33.477Z,100.00
2022-12-17T07:39:19.427Z,100.00
2022-12-17T07:42:05.468Z,100.00
2022-12-17T07:44:52.529Z,100.00
2022-12-17T07:47:38.527Z,100.00
2022-12-17T07:50:25.302Z,100.00
2022-12-17T07:53:18.717Z,100.00
2022-12-17T07:56:05.077Z,100.00
2022-12-17T07:58:51.240Z,100.00
2022-12-17T08:01:38.737Z,100.00
2022-12-17T08:04:25.533Z,100.00
2022-12-17T08:07:14.172Z,100.00
2022-12-17T08:10:00.531Z,100.00
2022-12-17T08:12:43.049Z,100.00
2022-12-17T08:15:29.092Z,100.00
2022-12-17T08:18:24.488Z,100.00
2022-12-17T08:21:12.287Z,100.00
2022-12-17T08:23:58.147Z,100.00
2022-12-17T08:26:47.916Z,100.00
2022-12-17T08:29:34.767Z,100.00
2022-12-17T08:32:21.059Z,100.00
2022-12-17T08:35:08.579Z,100.00
2022-12-17T08:37:54.896Z,100.00
2022-12-17T08:40:41.261Z,100.00
2022-12-17T08:43:27.360Z,100.00
2022-12-17T08:46:13.698Z,100.00
2022-12-17T08:48:59.728Z,100.00
2022-12-17T08:51:43.326Z,100.00
2022-12-17T08:54:29.650Z,100.00
2022-12-17T08:57:30.854Z,100.00
2022-12-17T09:00:18.162Z,100.00
2022-12-17T09:03:04.228Z,100.00
2022-12-17T09:06:02.015Z,100.00
2022-12-17T09:08:49.559Z,100.00
2022-12-17T09:11:35.750Z,100.00
2022-12-17T09:14:21.577Z,100.00
2022-12-17T09:17:08.000Z,100.00
2022-12-17T09:19:54.230Z,100.00
2022-12-17T09:22:40.277Z,100.00
2022-12-17T09:25:27.993Z,100.00
2022-12-17T09:28:18.111Z,100.00
2022-12-17T09:31:04.131Z,100.00
2022-12-17T09:33:50.617Z,100.00
2022-12-17T09:36:36.669Z,100.00
2022-12-17T09:39:23.043Z,100.00
2022-12-17T09:42:24.867Z,100.00
2022-12-17T09:45:23.211Z,100.00
2022-12-17T09:48:22.851Z,100.00
2022-12-17T09:51:11.315Z,100.00
2022-12-17T09:54:03.802Z,100.00
2022-12-17T09:56:51.394Z,100.00
2022-12-17T09:59:42.318Z,100.00
2022-12-17T10:02:33.875Z,100.00
2022-12-17T10:05:22.704Z,100.00
2022-12-17T10:08:10.631Z,100.00
2022-12-17T10:11:03.321Z,100.00
2022-12-17T10:13:50.012Z,100.00
2022-12-17T10:16:50.736Z,100.00
2022-12-17T10:19:49.633Z,100.00
2022-12-17T10:22:39.486Z,100.00
2022-12-17T10:25:38.926Z,100.00
2022-12-17T10:28:25.990Z,100.00
2022-12-17T10:31:12.632Z,100.00
2022-12-17T10:34:00.276Z,100.00
2022-12-17T10:36:48.064Z,100.00
2022-12-17T10:39:42.645Z,100.00
2022-12-17T10:42:39.618Z,100.00
2022-12-17T10:45:44.439Z,100.00
2022-12-17T10:48:39.691Z,100.00
2022-12-17T10:51:40.046Z,100.00
2022-12-17T10:54:46.971Z,100.00
2022-12-17T10:57:56.057Z,100.00
2022-12-17T11:00:49.817Z,100.00
2022-12-17T11:04:19.778Z,100.00
2022-12-17T11:07:14.151Z,100.00
2022-12-17T11:10:09.512Z,100.00
2022-12-17T11:13:17.671Z,100.00
2022-12-17T11:16:08.012Z,100.00
2022-12-17T11:19:07.385Z,100.00
2022-12-17T11:22:00.458Z,100.00
2022-12-17T11:24:56.456Z,100.00
2022-12-17T11:27:47.890Z,100.00
2022-12-17T11:30:35.803Z,100.00
2022-12-17T11:33:36.112Z,100.00
2022-12-17T11:36:38.749Z,100.00
2022-12-17T11:39:38.874Z,100.00
2022-12-17T11:42:37.339Z,100.00
2022-12-17T11:45:37.916Z,100.00
2022-12-17T11:48:34.350Z,100.00
2022-12-17T11:51:30.565Z,100.00
2022-12-17T11:54:26.672Z,100.00
2022-12-17T11:57:26.891Z,100.00
2022-12-17T12:00:21.212Z,100.00
2022-12-17T12:03:35.159Z,100.00
2022-12-17T12:06:32.478Z,100.00
2022-12-17T12:09:34.168Z,100.00
2022-12-17T12:12:33.815Z,100.00
2022-12-17T12:15:38.369Z,100.00
2022-12-17T12:18:33.437Z,100.00
2022-12-17T12:21:47.314Z,100.00
2022-12-17T12:25:08.344Z,100.00
2022-12-17T12:28:06.516Z,100.00
2022-12-17T12:31:00.655Z,86.21
2022-12-17T12:33:59.602Z,76.66
2022-12-17T12:36:46.562Z,67.80
2022-12-17T12:39:42.957Z,67.21
2022-12-17T12:42:39.884Z,69.38
2022-12-17T12:46:00.731Z,66.10
2022-12-17T12:49:01.353Z,66.37
2022-12-17T12:51:50.293Z,66.17
2022-12-17T12:54:49.771Z,64.30
2022-12-17T12:57:48.354Z,64.90
2022-12-17T13:00:52.676Z,64.50
2022-12-17T13:03:46.792Z,72.14
2022-12-17T13:06:44.735Z,75.09
2022-12-17T13:09:35.046Z,72.22
2022-12-17T13:12:33.424Z,76.61
2022-12-17T13:15:20.847Z,70.25
2022-12-17T13:18:04.876Z,72.49
2022-12-17T13:20:35.863Z,67.30
2022-12-17T13:23:28.418Z,65.52
2022-12-17T13:26:20.330Z,70.19
2022-12-17T13:29:13.127Z,70.83
2022-12-17T13:32:03.645Z,67.16
2022-12-17T13:34:49.711Z,69.31
2022-12-17T13:37:34.231Z,68.71
2022-12-17T13:40:21.235Z,71.06
2022-12-17T13:42:50.654Z,76.73
2022-12-17T13:45:24.731Z,70.96
2022-12-17T13:47:59.198Z,70.21
2022-12-17T13:50:35.300Z,69.25
2022-12-17T13:53:12.001Z,67.52
2022-12-17T13:55:42.033Z,67.36
2022-12-17T13:58:27.228Z,69.67
2022-12-17T14:01:08.253Z,68.27
2022-12-17T14:04:04.333Z,66.70
2022-12-17T14:06:30.470Z,65.90
2022-12-17T14:08:59.907Z,62.66
2022-12-17T14:11:47.357Z,68.53
2022-12-17T14:14:28.100Z,65.38
2022-12-17T14:16:57.269Z,67.85
2022-12-17T14:19:28.166Z,68.18
2022-12-17T14:21:57.784Z,69.38
2022-12-17T14:24:29.611Z,73.69
2022-12-17T14:27:01.810Z,75.79
2022-12-17T14:29:33.420Z,76.70
2022-12-17T14:32:21.781Z,76.24
2022-12-17T14:34:51.343Z,79.98
2022-12-17T14:37:28.467Z,82.41
2022-12-17T14:40:05.197Z,82.95
2022-12-17T14:42:38.321Z,89.15
2022-12-17T14:45:23.919Z,89.42
2022-12-17T14:47:58.257Z,90.23
2022-12-17T14:50:32.560Z,99.23
2022-12-17T14:53:03.620Z,100.00
2022-12-17T14:55:37.864Z,100.00
2022-12-17T14:58:26.356Z,100.00
2022-12-17T15:01:05.277Z,100.00
2022-12-17T15:03:39.717Z,100.00
2022-12-17T15:06:11.613Z,100.00
2022-12-17T15:08:42.957Z,100.00
2022-12-17T15:11:13.227Z,100.00
2022-12-17T15:13:43.040Z,100.00
2022-12-17T15:16:11.875Z,100.00
2022-12-17T15:18:41.002Z,100.00
2022-12-17T15:21:13.100Z,100.00
2022-12-17T15:23:45.630Z,100.00
2022-12-17T15:26:15.251Z,100.00
2022-12-17T15:28:45.876Z,100.00
2022-12-17T15:31:19.516Z,100.00
2022-12-17T15:33:50.551Z,100.00
2022-12-17T15:36:20.324Z,100.00
2022-12-17T15:38:48.981Z,100.00
2022-12-17T15:41:35.134Z,100.00
2022-12-17T15:44:05.038Z,100.00
2022-12-17T15:46:33.704Z,100.00
2022-12-17T15:49:02.507Z,100.00
2022-12-17T15:51:31.273Z,100.00
2022-12-17T15:54:00.770Z,100.00
2022-12-17T15:56:30.088Z,100.00
2022-12-17T15:58:59.409Z,100.00
2022-12-17T16:01:29.353Z,100.00
2022-12-17T16:03:59.199Z,100.00
2022-12-17T16:06:27.493Z,100.00
2022-12-17T16:08:56.213Z,100.00
2022-12-17T16:11:24.858Z,100.00
2022-12-17T16:13:55.601Z,100.00
2022-12-17T16:16:24.610Z,100.00
2022-12-17T16:18:54.780Z,100.00
2022-12-17T16:21:23.396Z,100.00
2022-12-17T16:23:52.100Z,100.00
2022-12-17T16:26:20.753Z,100.00
2022-12-17T16:28:49.378Z,100.00
2022-12-17T16:31:18.006Z,100.00
2022-12-17T16:33:48.250Z,100.00
2022-12-17T16:36:21.869Z,100.00
2022-12-17T16:38:52.738Z,100.00
2022-12-17T16:41:22.962Z,100.00
2022-12-17T16:43:51.648Z,100.00
2022-12-17T16:46:29.946Z,100.00
2022-12-17T16:49:00.789Z,100.00
2022-12-17T16:51:30.639Z,100.00
2022-12-17T16:53:59.930Z,100.00
2022-12-17T16:56:31.856Z,100.00
2022-12-17T16:59:07.862Z,100.00
2022-12-17T17:01:38.529Z,100.00
2022-12-17T17:04:08.106Z,100.00
2022-12-17T17:06:45.141Z,100.00
2022-12-17T17:09:15.383Z,100.00
2022-12-17T17:11:49.495Z,100.00
2022-12-17T17:14:20.206Z,100.00
2022-12-17T17:16:48.880Z,100.00
2022-12-17T17:19:17.519Z,100.00
2022-12-17T17:21:52.824Z,100.00
2022-12-17T17:24:25.495Z,100.00
2022-12-17T17:26:55.335Z,100.00
2022-12-17T17:29:23.855Z,100.00
2022-12-17T17:32:09.966Z,100.00
2022-12-17T17:34:40.109Z,100.00
2022-12-17T17:37:10.480Z,100.00
2022-12-17T17:39:38.828Z,100.00
2022-12-17T17:42:07.668Z,100.00
2022-12-17T17:44:37.259Z,100.00
2022-12-17T17:47:06.025Z,100.00
2022-12-17T17:49:34.779Z,100.00
2022-12-17T17:52:11.920Z,100.00
2022-12-17T17:54:42.054Z,100.00
2022-12-17T17:57:11.774Z,100.00
2022-12-17T17:59:40.588Z,100.00
2022-12-17T18:02:11.223Z,100.00
2022-12-17T18:04:40.582Z,100.00
2022-12-17T18:07:25.228Z,100.00
2022-12-17T18:09:55.738Z,100.00
2022-12-17T18:12:41.976Z,100.00
2022-12-17T18:15:14.778Z,100.00
2022-12-17T18:17:45.828Z,100.00
2022-12-17T18:20:14.825Z,100.00
2022-12-17T18:22:43.609Z,100.00
2022-12-17T18:25:13.383Z,100.00
2022-12-17T18:27:42.645Z,100.00
2022-12-17T18:30:12.123Z,100.00
2022-12-17T18:32:40.783Z,100.00
2022-12-17T18:35:10.249Z,100.00
2022-12-17T18:37:38.935Z,100.00
2022-12-17T18:40:09.397Z,100.00
2022-12-17T18:42:56.355Z,100.00
2022-12-17T18:45:25.108Z,100.00
2022-12-17T18:47:53.723Z,100.00
2022-12-17T18:50:22.084Z,100.00
2022-12-17T18:52:50.763Z,100.00
2022-12-17T18:55:19.586Z,100.00
2022-12-17T18:57:49.325Z,100.00
2022-12-17T19:00:18.218Z,100.00
2022-12-17T19:02:46.936Z,100.00
2022-12-17T19:05:15.678Z,100.00
2022-12-17T19:07:44.369Z,100.00
2022-12-17T19:10:13.092Z,100.00
2022-12-17T19:12:41.719Z,100.00
2022-12-17T19:15:12.227Z,100.00
2022-12-17T19:17:40.923Z,100.00
2022-12-17T19:20:10.893Z,100.00
2022-12-17T19:22:39.649Z,100.00
2022-12-17T19:25:08.641Z,100.00
2022-12-17T19:27:37.084Z,100.00
2022-12-17T19:30:06.756Z,100.00
2022-12-17T19:32:36.530Z,100.00
2022-12-17T19:35:05.615Z,100.00
2022-12-17T19:37:34.315Z,100.00
2022-12-17T19:40:02.646Z,100.00
2022-12-17T19:42:37.024Z,100.00
2022-12-17T19:45:06.911Z,100.00
2022-12-17T19:47:36.596Z,100.00
2022-12-17T19:50:06.427Z,100.00
2022-12-17T19:52:35.267Z,100.00
2022-12-17T19:55:04.004Z,100.00
2022-12-17T19:57:34.805Z,100.00
2022-12-17T20:00:03.269Z,100.00
2022-12-17T20:02:42.589Z,100.00
2022-12-17T20:05:11.512Z,100.00
2022-12-17T20:07:41.461Z,100.00
2022-12-17T20:10:10.304Z,100.00
2022-12-17T20:12:39.034Z,100.00
2022-12-17T20:15:08.409Z,100.00
2022-12-17T20:17:37.039Z,100.00
2022-12-17T20:20:08.451Z,100.00
2022-12-17T20:22:37.260Z,100.00
2022-12-17T20:25:09.366Z,100.00
2022-12-17T20:27:37.770Z,100.00
2022-12-17T20:30:08.073Z,100.00
2022-12-17T20:32:37.492Z,100.00
2022-12-17T20:35:08.937Z,100.00
2022-12-17T20:37:37.653Z,100.00
2022-12-17T20:40:07.953Z,100.00
2022-12-17T20:42:36.705Z,100.00
2022-12-17T20:45:05.955Z,100.00
2022-12-17T20:47:34.565Z,100.00
2022-12-17T20:50:03.228Z,100.00
2022-12-17T20:52:33.221Z,100.00
2022-12-17T20:55:01.893Z,100.00
2022-12-17T20:57:30.437Z,100.00
2022-12-17T20:59:59.432Z,100.00
2022-12-17T21:02:28.452Z,100.00
2022-12-17T21:04:57.220Z,100.00
2022-12-17T21:07:25.599Z,100.00
2022-12-17T21:09:55.423Z,100.00
2022-12-17T21:12:44.065Z,100.00
2022-12-17T21:15:12.720Z,100.00
2022-12-17T21:17:41.024Z,100.00
2022-12-17T21:20:10.725Z,100.00
2022-12-17T21:22:41.267Z,100.00
2022-12-17T21:25:11.514Z,100.00
2022-12-17T21:27:39.811Z,100.00
2022-12-17T21:30:13.436Z,100.00
2022-12-17T21:32:42.279Z,100.00
2022-12-17T21:35:11.327Z,100.00
2022-12-17T21:37:39.933Z,100.00
2022-12-17T21:40:12.714Z,100.00
2022-12-17T21:43:00.577Z,100.00
2022-12-17T21:45:29.592Z,100.00
2022-12-17T21:47:59.062Z,100.00
2022-12-17T21:50:27.683Z,100.00
2022-12-17T21:52:56.308Z,100.00
2022-12-17T21:55:27.259Z,100.00
2022-12-17T21:57:55.637Z,100.00
2022-12-17T22:00:24.308Z,100.00
2022-12-17T22:02:52.913Z,100.00
2022-12-17T22:05:21.786Z,100.00
2022-12-17T22:07:51.262Z,100.00
2022-12-17T22:10:44.738Z,100.00
2022-12-17T22:13:29.642Z,100.00
2022-12-17T22:15:58.012Z,100.00
2022-12-17T22:18:26.790Z,100.00
2022-12-17T22:20:59.381Z,100.00
2022-12-17T22:23:27.929Z,100.00
2022-12-17T22:25:56.676Z,100.00
2022-12-17T22:28:26.449Z,100.00
2022-12-17T22:31:12.562Z,100.00
2022-12-17T22:34:01.806Z,100.00
2022-12-17T22:38:41.682Z,100.00
2022-12-17T22:43:06.694Z,100.00
2022-12-17T22:44:41.940Z,100.00
2022-12-17T22:45:17.705Z,100.00
2022-12-17T22:47:46.800Z,100.00
2022-12-17T22:50:15.471Z,100.00
2022-12-17T22:52:44.604Z,100.00
2022-12-17T22:55:13.326Z,100.00
2022-12-17T22:57:42.174Z,100.00
2022-12-17T23:00:22.100Z,100.00
2022-12-17T23:02:54.118Z,100.00
2022-12-17T23:05:23.713Z,100.00
2022-12-17T23:07:52.985Z,100.00
2022-12-17T23:10:22.376Z,100.00
2022-12-17T23:12:54.265Z,100.00
2022-12-17T23:15:29.062Z,100.00
2022-12-17T23:18:01.166Z,100.00
2022-12-17T23:20:32.284Z,100.00
2022-12-17T23:23:01.418Z,100.00
2022-12-17T23:25:30.475Z,100.00
2022-12-17T23:27:59.207Z,100.00
2022-12-17T23:30:29.259Z,100.00
2022-12-17T23:32:57.634Z,100.00
2022-12-17T23:35:25.991Z,100.00
2022-12-17T23:37:54.357Z,100.00
2022-12-17T23:40:23.168Z,100.00
2022-12-17T23:42:51.810Z,100.00
2022-12-17T23:45:20.346Z,100.00
2022-12-17T23:47:50.011Z,100.00
2022-12-17T23:50:18.654Z,100.00
2022-12-17T23:52:47.319Z,100.00
2022-12-17T23:55:15.952Z,100.00
2022-12-17T23:57:44.325Z,100.00
